»·PEaware :: JBU180 KLGB-KLAS

JBU180 :: KLGB-KLAS

FLIGHT INFORMATION

Flight Status: Arrived
Operator:
JetBlue Airways
More flights by this operator :: More flights under this callsign
Pilot: John C. (18682)
Aircraft: AIRBUS A320
(A320)
More flights by this aircraft type
Origin: KLGB Long Beach
United States
Destination: KLAS McCarran Intl
United States
More flights between these airports :: More routes between these airports
Route: ZOOMM2 MISEN KEPEC6
File this flight plan on PilotEdge
Remarks:
Altitude:
(Current/Filed)
23,000ft
Speed:
(Current/Filed)
424kts
Departed: 21-Dec-19 07:30 PM
Arrived: 21-Dec-19 08:16 PM
Distance/Time
Traveled:
201nm/0:46
Distance/Time
To Go:
Arrived

Flight Plot

Page will automatically refresh every two minutes.

Flight plan parsing failed; only flown route is shown


Map Options




Map Legend


Flown Route
Filed Route
Departure Airport
Arrival Airport
Navaid (VOR, NDB)
Fix

Horizontal Profiles

Position Reports

Time Latitude Longitude Heading Altitude Ground
Speed
21-Dec-19 19:11 33.818961 -118.146079 104 41ft 0kts
21-Dec-19 19:12 33.818961 -118.146079 104 41ft 0kts
21-Dec-19 19:13 33.818961 -118.146079 104 41ft 0kts
21-Dec-19 19:14 33.818961 -118.146079 104 41ft 0kts
21-Dec-19 19:15 33.818961 -118.146079 104 41ft 0kts
21-Dec-19 19:16 33.818961 -118.146079 104 41ft 0kts
21-Dec-19 19:17 33.818961 -118.146079 104 41ft 0kts
21-Dec-19 19:18 33.818961 -118.146079 104 41ft 0kts
21-Dec-19 19:19 33.818961 -118.146079 104 41ft 0kts
21-Dec-19 19:20 33.818961 -118.146079 104 41ft 0kts
21-Dec-19 19:21 33.818971 -118.146124 104 41ft 2kts
21-Dec-19 19:22 33.819117 -118.146807 104 42ft 2kts
21-Dec-19 19:23 33.819385 -118.146999 180 43ft 0kts
21-Dec-19 19:24 33.819385 -118.146999 180 43ft 0kts
21-Dec-19 19:25 33.818215 -118.147001 179 42ft 16kts
21-Dec-19 19:26 33.813820 -118.144665 135 36ft 21kts
21-Dec-19 19:27 33.809359 -118.139256 135 32ft 23kts
21-Dec-19 19:28 33.807646 -118.137629 192 31ft 0kts
21-Dec-19 19:29 33.815065 -118.148007 315 42ft 159kts
21-Dec-19 19:30 33.840508 -118.201170 256 2922ft 242kts
21-Dec-19 19:31 33.779787 -118.241608 193 4695ft 277kts
21-Dec-19 19:32 33.706039 -118.260820 192 7909ft 267kts
21-Dec-19 19:33 33.645582 -118.236389 111 10245ft 277kts
21-Dec-19 19:34 33.687685 -118.145354 40 11877ft 388kts
21-Dec-19 19:35 33.778613 -118.063011 39 13903ft 421kts
21-Dec-19 19:36 33.873352 -117.975390 39 16095ft 439kts
21-Dec-19 19:37 33.972186 -117.884494 38 18092ft 455kts
21-Dec-19 19:38 34.074466 -117.790816 39 19908ft 468kts
21-Dec-19 19:39 34.160609 -117.671845 53 21491ft 478kts
21-Dec-19 19:40 34.245492 -117.545634 52 22932ft 490kts
21-Dec-19 19:41 34.332735 -117.415433 52 23156ft 509kts
21-Dec-19 19:42 34.421745 -117.282190 53 23171ft 510kts
21-Dec-19 19:43 34.511087 -117.147902 53 23169ft 510kts
21-Dec-19 19:44 34.601012 -117.015276 51 23196ft 508kts
21-Dec-19 19:45 34.691402 -116.883546 50 23200ft 505kts
21-Dec-19 19:46 34.780795 -116.752583 50 23199ft 504kts
21-Dec-19 19:47 34.874293 -116.625249 38 23200ft 505kts
21-Dec-19 19:48 34.983885 -116.519080 37 23201ft 502kts
21-Dec-19 19:49 35.092934 -116.412699 40 23200ft 501kts
21-Dec-19 19:50 35.141598 -116.354807 45 23199ft 501kts
21-Dec-19 19:51 35.235306 -116.237429 46 22585ft 459kts
21-Dec-19 19:52 35.321206 -116.129423 46 20848ft 433kts
21-Dec-19 19:53 35.403594 -116.025436 46 18803ft 417kts
21-Dec-19 19:54 35.482896 -115.925080 47 16803ft 401kts
21-Dec-19 19:55 35.558833 -115.828697 47 14872ft 386kts
21-Dec-19 19:56 35.631623 -115.736062 47 13366ft 360kts
21-Dec-19 19:57 35.696865 -115.652867 47 13040ft 326kts
21-Dec-19 19:58 35.763314 -115.577547 16 13032ft 329kts
21-Dec-19 19:59 35.853269 -115.569985 0 13036ft 325kts
21-Dec-19 20:00 35.943769 -115.564749 6 13023ft 326kts
21-Dec-19 20:01 35.996845 -115.483831 72 11931ft 318kts
21-Dec-19 20:02 36.027921 -115.384974 75 11036ft 290kts
21-Dec-19 20:03 36.025057 -115.291111 98 10004ft 271kts
21-Dec-19 20:04 36.018240 -115.198267 96 8931ft 275kts
21-Dec-19 20:05 36.011935 -115.105410 95 7837ft 268kts
21-Dec-19 20:06 36.006186 -115.015635 94 7019ft 253kts
21-Dec-19 20:07 36.000503 -114.930964 94 6163ft 245kts
21-Dec-19 20:08 35.998834 -114.848650 58 5298ft 230kts
21-Dec-19 20:09 36.043049 -114.851165 294 5034ft 183kts
21-Dec-19 20:10 36.060731 -114.909350 290 5023ft 181kts
21-Dec-19 20:11 36.071471 -114.968058 275 4332ft 162kts
21-Dec-19 20:12 36.072430 -115.021722 272 3497ft 152kts
21-Dec-19 20:13 36.073500 -115.071318 269 2955ft 142kts
21-Dec-19 20:14 36.073676 -115.119663 269 2219ft 139kts
21-Dec-19 20:15 36.073986 -115.148838 286 2116ft 20kts
21-Dec-19 20:16 36.077461 -115.152559 336 2124ft 9kts
21-Dec-19 20:17 36.078550 -115.147846 94 2104ft 19kts
21-Dec-19 20:18 36.078694 -115.141515 9 2085ft 11kts
21-Dec-19 20:19 36.084050 -115.141000 44 2070ft 18kts
21-Dec-19 20:20 36.085449 -115.139538 359 2064ft 0kts
21-Dec-19 20:21 36.085449 -115.139538 359 2064ft 0kts
21-Dec-19 20:22 36.085449 -115.139538 359 2064ft 0kts

Navigation Log

Ident Type
Flight plan parsing failed, navigation log unavailable